Baring, Washington
Current Conditions -  °F | °C
As of 9:53 PM on Friday 24 Oct 2014 (Local Time) from KPAE Reporting Station
Light Rain Light Rain  
Wind Chill: 51°   Ceiling: 5500
Heat Index: 51°   Visibility: 10mi
Dew Point: 47°   Wind: 8mph
Humidity: 86%   Direction: 110°ESE
Pressure: 29.86"   Gusts: NA
Location:  47.77°N, 121.49°W
Report Text: KPAE 250453Z 11007KT 10SM -RA OVC055 11/08 A2986 RMK AO2 SLP110 P0005 T01060083
Loading
Personal Weather Stations






























Interactive Weather Map
Tropical Storm Tracking
New forecast layout! Learn more

10-Day Weather Forecast

Advertisements
Track Severe Weather on mobile